Time;durP1;ratioP1;P1;durP2;ratioP2;P2;SDS_P1;SDS_P2;PMS_P1;PMS_P2;Temp;Humidity;BMP_temperature;BMP_pressure;BME280_temperature;BME280_humidity;BME280_pressure;Samples;Min_cycle;Max_cycle;Signal;HPM_P1;HPM_P2
2023/04/07 00:00:19;;;;;;;3.60;1.70;;;;;;;-145.18;100.00;46656.50;6181624;23;20063;-70
2023/04/07 00:02:45;;;;;;;3.07;2.40;;;;;;;-145.18;100.00;46658.44;6181553;23;20592;-70
2023/04/07 00:05:11;;;;;;;12.60;2.57;;;;;;;-145.18;100.00;46654.53;6181817;23;20378;-70
2023/04/07 00:07:36;;;;;;;3.83;2.27;;;;;;;-145.18;100.00;46656.50;6182054;23;20009;-70
2023/04/07 00:10:02;;;;;;;3.27;1.73;;;;;;;-145.18;100.00;46660.41;6181790;23;20040;-70
2023/04/07 00:12:27;;;;;;;6.70;2.10;;;;;;;-145.18;100.00;46654.53;6181598;23;20012;-70
2023/04/07 00:14:53;;;;;;;1.63;1.10;;;;;;;-145.18;100.00;46656.50;6181634;23;20148;-70
2023/04/07 00:17:18;;;;;;;4.10;2.63;;;;;;;-145.18;100.00;46658.44;6181106;23;20005;-70
2023/04/07 00:19:43;;;;;;;6.50;2.87;;;;;;;-145.18;100.00;46660.41;6181976;23;20097;-70
2023/04/07 00:22:09;;;;;;;12.60;1.87;;;;;;;-145.18;100.00;46660.41;6181268;23;20017;-70
2023/04/07 00:24:34;;;;;;;3.37;2.00;;;;;;;-145.18;100.00;46656.50;6181962;23;20009;-70
2023/04/07 00:27:00;;;;;;;4.13;1.70;;;;;;;-145.18;100.00;46654.53;6181699;23;20039;-70
2023/04/07 00:29:25;;;;;;;4.00;2.13;;;;;;;-145.18;100.00;46664.31;6181921;23;20013;-70
2023/04/07 00:31:51;;;;;;;3.67;1.70;;;;;;;-145.18;100.00;46662.34;6181431;23;20091;-70
2023/04/07 00:34:16;;;;;;;1.70;1.20;;;;;;;-145.18;100.00;46664.31;6181578;23;20009;-70
2023/04/07 00:36:41;;;;;;;4.10;2.43;;;;;;;-145.18;100.00;46660.41;6181658;23;20132;-70
2023/04/07 00:39:07;;;;;;;2.80;1.63;;;;;;;-145.18;100.00;46658.44;6155246;23;20005;-70
2023/04/07 00:41:35;;;;;;;5.20;2.23;;;;;;;-145.18;100.00;46658.44;6181522;23;20012;-70
2023/04/07 00:44:01;;;;;;;3.27;1.57;;;;;;;-145.18;100.00;46664.31;6181587;23;20084;-70
2023/04/07 00:46:27;;;;;;;3.80;1.93;;;;;;;-145.18;100.00;46660.41;6181508;23;20598;-70
2023/04/07 00:48:53;;;;;;;4.13;2.30;;;;;;;-145.18;100.00;46664.31;6181835;23;20019;-70
2023/04/07 00:51:21;;;;;;;2.17;1.07;;;;;;;-145.18;100.00;46664.31;6181394;23;20083;-70
2023/04/07 00:53:48;;;;;;;6.23;2.30;;;;;;;-145.18;100.00;46660.41;6181462;23;20465;-70
2023/04/07 00:56:13;;;;;;;7.30;3.40;;;;;;;-145.18;100.00;46658.44;6181269;23;20234;-70
2023/04/07 00:58:39;;;;;;;5.30;2.03;;;;;;;-145.18;100.00;46664.31;6181534;23;20353;-70
2023/04/07 01:01:26;;;;;;;5.43;2.07;;;;;;;-145.18;100.00;46662.34;6181646;23;20024;-70
2023/04/07 01:04:00;;;;;;;3.83;1.80;;;;;;;-145.18;100.00;46660.41;6178128;23;20087;-70
2023/04/07 01:06:30;;;;;;;3.63;1.70;;;;;;;-145.18;100.00;46668.22;6181203;23;20306;-70
2023/04/07 01:09:10;;;;;;;3.57;2.07;;;;;;;-145.18;100.00;46662.34;6184011;23;20231;-70
2023/04/07 01:11:47;;;;;;;5.33;1.77;;;;;;;-145.18;100.00;46666.25;6183195;23;20310;-70
2023/04/07 01:14:14;;;;;;;9.00;2.07;;;;;;;-145.18;100.00;46662.34;6182807;23;20275;-70
2023/04/07 01:16:44;;;;;;;2.73;1.53;;;;;;;-145.18;100.00;46664.31;6183116;23;20227;-70
2023/04/07 01:19:25;;;;;;;3.63;1.57;;;;;;;-145.18;100.00;46664.31;6183298;23;20734;-70
2023/04/07 01:21:52;;;;;;;3.13;1.33;;;;;;;-145.18;100.00;46660.41;6183179;23;20274;-70
2023/04/07 01:24:24;;;;;;;3.77;1.53;;;;;;;-145.18;100.00;46668.22;6183017;23;20290;-70
2023/04/07 01:26:50;;;;;;;4.77;1.67;;;;;;;-145.18;100.00;46660.41;6182906;23;20231;-70
2023/04/07 01:29:22;;;;;;;3.07;1.27;;;;;;;-145.18;100.00;46670.16;6156942;23;20235;-70
2023/04/07 01:31:49;;;;;;;2.83;2.17;;;;;;;-145.18;100.00;46666.25;6183127;23;20234;-70
2023/04/07 01:34:16;;;;;;;1.53;1.10;;;;;;;-145.18;100.00;46664.31;6183041;23;20247;-70
2023/04/07 01:36:43;;;;;;;4.10;1.80;;;;;;;-145.18;100.00;46662.34;6182757;23;20323;-70
2023/04/07 01:39:10;;;;;;;3.63;2.00;;;;;;;-145.18;100.00;46666.25;6182882;23;20238;-70
2023/04/07 01:41:37;;;;;;;3.03;1.40;;;;;;;-145.18;100.00;46666.25;6183281;23;20565;-70
2023/04/07 01:44:05;;;;;;;8.47;1.33;;;;;;;-145.18;100.00;46662.34;6182293;23;20227;-70
2023/04/07 01:46:30;;;;;;;5.90;1.63;;;;;;;-145.18;100.00;46666.25;6182786;23;20263;-69
2023/04/07 01:48:56;;;;;;;4.03;1.33;;;;;;;-145.18;100.00;46664.31;6183269;23;20231;-70
2023/04/07 01:51:23;;;;;;;6.37;1.40;;;;;;;-145.18;100.00;46662.34;6182902;23;20506;-70
2023/04/07 01:53:49;;;;;;;3.63;2.07;;;;;;;-145.18;100.00;46662.34;6182816;23;20250;-70
2023/04/07 01:56:15;;;;;;;2.93;2.37;;;;;;;-145.18;100.00;46662.34;6182815;23;20249;-70
2023/04/07 01:58:41;;;;;;;4.27;2.10;;;;;;;-145.18;100.00;46662.34;6182945;23;20227;-70
2023/04/07 02:03:55;;;;;;;4.17;1.93;;;;;;;-145.18;100.00;46662.34;6173179;23;20028;-70
2023/04/07 02:06:31;;;;;;;2.53;1.60;;;;;;;-145.18;100.00;46670.16;6181531;23;20246;-70
2023/04/07 02:09:01;;;;;;;4.28;1.65;;;;;;;-145.18;100.00;46666.25;6182179;23;20258;-70
2023/04/07 02:11:28;;;;;;;2.77;1.50;;;;;;;-145.18;100.00;46664.31;6181700;23;20349;-70
2023/04/07 02:13:55;;;;;;;2.27;1.33;;;;;;;-145.18;100.00;46664.31;6183130;23;20334;-70
2023/04/07 02:16:21;;;;;;;2.00;1.40;;;;;;;-145.18;100.00;46668.22;6183073;23;20231;-70
2023/04/07 02:18:47;;;;;;;5.50;2.27;;;;;;;-145.18;100.00;46664.31;6182301;23;20227;-70
2023/04/07 02:21:14;;;;;;;5.30;1.90;;;;;;;-145.18;100.00;46666.25;6182930;23;20021;-70
2023/04/07 02:23:40;;;;;;;4.70;1.87;;;;;;;-145.18;100.00;46662.34;6183015;23;20555;-70
2023/04/07 02:26:06;;;;;;;3.10;2.00;;;;;;;-145.18;100.00;46658.44;6182924;23;20306;-70
2023/04/07 02:28:31;;;;;;;2.93;1.50;;;;;;;-145.18;100.00;46664.31;6182457;23;20690;-70
2023/04/07 02:30:57;;;;;;;5.50;1.53;;;;;;;-145.18;100.00;46670.16;6183105;23;20442;-70
2023/04/07 02:33:22;;;;;;;6.80;2.10;;;;;;;-145.18;100.00;46668.22;6182891;23;20088;-70
2023/04/07 02:35:47;;;;;;;2.23;1.17;;;;;;;-145.18;100.00;46666.25;6182832;23;20549;-70
2023/04/07 02:38:13;;;;;;;1.83;1.17;;;;;;;-145.18;100.00;46666.25;6182701;23;20415;-70
2023/04/07 02:40:38;;;;;;;2.50;1.53;;;;;;;-145.18;100.00;46660.41;6182387;23;20009;-70
2023/04/07 02:43:04;;;;;;;3.60;1.77;;;;;;;-145.18;100.00;46662.34;6182843;23;20033;-70
2023/04/07 02:45:30;;;;;;;12.53;1.67;;;;;;;-145.18;100.00;46656.50;6182764;23;20385;-70
2023/04/07 02:47:55;;;;;;;2.37;1.17;;;;;;;-145.18;100.00;46662.34;6182355;23;20013;-70
2023/04/07 02:50:21;;;;;;;2.13;1.17;;;;;;;-145.18;100.00;46662.34;6182662;23;20231;-70
2023/04/07 02:52:46;;;;;;;3.03;1.03;;;;;;;-145.18;100.00;46658.44;6182193;23;20059;-70
2023/04/07 02:55:11;;;;;;;2.80;1.40;;;;;;;-145.18;100.00;46656.50;6182928;23;20009;-70
2023/04/07 02:57:37;;;;;;;1.97;1.60;;;;;;;-145.18;100.00;46662.34;6182174;23;20009;-70
2023/04/07 03:00:03;;;;;;;3.50;1.47;;;;;;;-145.18;100.00;46660.41;6156450;23;20008;-70
2023/04/07 03:02:29;;;;;;;2.53;1.40;;;;;;;-145.18;100.00;46664.31;6182162;23;20035;-70
2023/04/07 03:04:54;;;;;;;3.20;1.57;;;;;;;-145.18;100.00;46660.41;6182152;23;20329;-70
2023/04/07 03:07:20;;;;;;;7.50;1.63;;;;;;;-145.18;100.00;46662.34;6182542;23;20031;-70
2023/04/07 03:09:45;;;;;;;8.93;1.53;;;;;;;-145.18;100.00;46662.34;6182678;23;20005;-70
2023/04/07 03:12:11;;;;;;;7.33;2.33;;;;;;;-145.18;100.00;46664.31;6182383;23;20008;-70
2023/04/07 03:14:36;;;;;;;4.63;1.60;;;;;;;-145.18;100.00;46662.34;6182192;23;20334;-70
2023/04/07 03:17:02;;;;;;;8.27;1.70;;;;;;;-145.18;100.00;46654.53;6182452;23;20005;-70
2023/04/07 03:19:28;;;;;;;3.53;1.60;;;;;;;-145.18;100.00;46666.25;6182504;23;20016;-70
2023/04/07 03:21:53;;;;;;;2.10;0.93;;;;;;;-145.18;100.00;46658.44;6182019;23;20239;-70
2023/04/07 03:24:19;;;;;;;2.83;1.43;;;;;;;-145.18;100.00;46666.25;6182575;23;20807;-70
2023/04/07 03:26:44;;;;;;;3.77;1.33;;;;;;;-145.18;100.00;46662.34;6182027;23;20017;-70
2023/04/07 03:29:09;;;;;;;1.93;1.10;;;;;;;-145.18;100.00;46656.50;6182556;23;20009;-70
2023/04/07 03:31:36;;;;;;;3.93;1.27;;;;;;;-145.18;100.00;46656.50;6181826;23;20088;-70
2023/04/07 03:34:02;;;;;;;2.37;1.73;;;;;;;-145.18;100.00;46658.44;6182680;23;20343;-70
2023/04/07 03:36:27;;;;;;;3.17;0.93;;;;;;;-145.18;100.00;46658.44;6182405;23;20249;-70
2023/04/07 03:38:53;;;;;;;5.83;1.13;;;;;;;-145.18;100.00;46664.31;6181682;23;20016;-70
2023/04/07 03:41:18;;;;;;;7.43;1.57;;;;;;;-145.18;100.00;46654.53;6182474;23;20090;-70
2023/04/07 03:43:44;;;;;;;6.17;1.43;;;;;;;-145.18;100.00;46660.41;6181832;23;20057;-70
2023/04/07 03:46:09;;;;;;;3.87;1.50;;;;;;;-145.18;100.00;46664.31;6182430;23;20005;-69
2023/04/07 03:48:35;;;;;;;2.03;0.80;;;;;;;-145.18;100.00;46656.50;6181732;23;19997;-69
2023/04/07 03:51:00;;;;;;;4.47;1.40;;;;;;;-145.18;100.00;46660.41;6182530;23;20041;-69
2023/04/07 03:53:26;;;;;;;2.63;1.10;;;;;;;-145.18;100.00;46660.41;6180959;23;20460;-70
2023/04/07 03:55:51;;;;;;;3.33;1.27;;;;;;;-145.18;100.00;46658.44;6178954;23;20016;-70
2023/04/07 03:58:17;;;;;;;2.13;0.93;;;;;;;-145.18;100.00;46660.41;6181236;23;20008;-70
2023/04/07 04:00:42;;;;;;;5.50;1.60;;;;;;;-145.18;100.00;46656.50;6181892;23;20016;-70
2023/04/07 04:03:07;;;;;;;1.40;1.13;;;;;;;-145.18;100.00;46660.41;6180287;23;20025;-70
2023/04/07 04:05:33;;;;;;;2.47;1.27;;;;;;;-145.18;100.00;46654.53;6181644;23;20092;-70
2023/04/07 04:07:58;;;;;;;5.63;1.80;;;;;;;-145.18;100.00;46662.34;6181539;23;20005;-70
2023/04/07 04:10:25;;;;;;;9.20;1.50;;;;;;;-145.18;100.00;46660.41;6180640;23;20099;-70
2023/04/07 04:12:50;;;;;;;7.00;1.63;;;;;;;-145.18;100.00;46660.41;6180994;23;20692;-70
2023/04/07 04:15:16;;;;;;;4.57;2.03;;;;;;;-145.18;100.00;46662.34;6181569;23;20382;-70
2023/04/07 04:17:41;;;;;;;4.80;1.27;;;;;;;-145.18;100.00;46656.50;6181147;23;20015;-70
2023/04/07 04:20:07;;;;;;;3.40;1.57;;;;;;;-145.18;100.00;46654.53;6181017;23;20009;-70
2023/04/07 04:22:33;;;;;;;7.87;1.80;;;;;;;-145.18;100.00;46658.44;6180939;23;20009;-70
2023/04/07 04:24:59;;;;;;;9.20;2.00;;;;;;;-145.18;100.00;46660.41;6182090;23;20238;-70
2023/04/07 04:27:25;;;;;;;3.07;1.50;;;;;;;-145.18;100.00;46658.44;6180406;23;20462;-70
2023/04/07 04:29:50;;;;;;;11.87;2.50;;;;;;;-145.18;100.00;46656.50;6178826;23;20009;-70
2023/04/07 04:32:16;;;;;;;1.87;1.20;;;;;;;-145.18;100.00;46660.41;6179304;23;20017;-70
2023/04/07 04:34:42;;;;;;;3.13;1.50;;;;;;;-145.18;100.00;46662.34;6179954;23;20105;-70
2023/04/07 04:37:07;;;;;;;4.67;2.53;;;;;;;-145.18;100.00;46660.41;6178576;23;20696;-70
2023/04/07 04:39:33;;;;;;;3.43;1.33;;;;;;;-145.18;100.00;46656.50;6153950;23;20018;-70
2023/04/07 04:41:58;;;;;;;3.50;2.10;;;;;;;-145.18;100.00;46656.50;6179775;23;20016;-70
2023/04/07 04:44:24;;;;;;;3.43;1.90;;;;;;;-145.18;100.00;46658.44;6182598;23;20666;-70
2023/04/07 04:46:50;;;;;;;7.97;2.50;;;;;;;-145.18;100.00;46660.41;6182303;23;20496;-70
2023/04/07 04:49:15;;;;;;;5.43;2.23;;;;;;;-145.18;100.00;46660.41;6180928;23;20013;-70
2023/04/07 04:51:41;;;;;;;3.03;1.70;;;;;;;-145.18;100.00;46652.59;6182205;23;20013;-70
2023/04/07 04:54:06;;;;;;;4.17;1.53;;;;;;;-145.18;100.00;46660.41;6180517;23;20017;-70
2023/04/07 04:56:32;;;;;;;8.57;1.90;;;;;;;-145.18;100.00;46660.41;6182673;23;20016;-70
2023/04/07 04:58:57;;;;;;;7.93;1.53;;;;;;;-145.18;100.00;46652.59;6182401;23;20013;-70
2023/04/07 05:01:23;;;;;;;4.63;1.97;;;;;;;-145.18;100.00;46656.50;6181335;23;20013;-70
2023/04/07 05:03:49;;;;;;;2.97;2.23;;;;;;;-145.18;100.00;46656.50;6181867;23;20013;-70
2023/04/07 05:06:14;;;;;;;5.53;2.27;;;;;;;-145.18;100.00;46654.53;6182486;23;20133;-70
2023/04/07 05:08:40;;;;;;;8.43;2.30;;;;;;;-145.18;100.00;46660.41;6181950;23;20012;-70
2023/04/07 05:11:05;;;;;;;2.43;1.30;;;;;;;-145.18;100.00;46658.44;6182700;23;20472;-70
2023/04/07 05:13:30;;;;;;;4.27;2.10;;;;;;;-145.18;100.00;46650.63;6183462;23;20060;-70
2023/04/07 05:15:56;;;;;;;3.30;1.17;;;;;;;-145.18;100.00;46656.50;6182791;23;20088;-70
2023/04/07 05:18:21;;;;;;;4.13;1.80;;;;;;;-145.18;100.00;46654.53;6183188;23;20032;-70
2023/04/07 05:20:48;;;;;;;6.27;1.83;;;;;;;-145.18;100.00;46654.53;6183429;23;20346;-70
2023/04/07 05:23:13;;;;;;;6.97;1.90;;;;;;;-145.18;100.00;46656.50;6183413;23;20020;-70
2023/04/07 05:25:39;;;;;;;4.03;1.60;;;;;;;-145.18;100.00;46654.53;6183638;23;20548;-70
2023/04/07 05:28:05;;;;;;;4.43;2.07;;;;;;;-145.18;100.00;46652.59;6183341;23;20012;-70
2023/04/07 05:30:30;;;;;;;5.60;2.37;;;;;;;-145.18;100.00;46656.50;6183599;23;20067;-70
2023/04/07 05:32:56;;;;;;;5.03;1.97;;;;;;;-145.18;100.00;46658.44;6183023;23;20243;-70
2023/04/07 05:35:21;;;;;;;4.40;1.97;;;;;;;-145.18;100.00;46656.50;6183372;23;20323;-71
2023/04/07 05:37:46;;;;;;;4.80;1.67;;;;;;;-145.18;100.00;46654.53;6183040;23;20044;-70
2023/04/07 05:40:12;;;;;;;7.03;2.20;;;;;;;-145.18;100.00;46652.59;6183282;23;20012;-71
2023/04/07 05:42:37;;;;;;;5.77;1.50;;;;;;;-145.18;100.00;46652.59;6183072;23;20439;-70
2023/04/07 05:45:03;;;;;;;6.30;1.47;;;;;;;-145.18;100.00;46656.50;6183620;23;20020;-71
2023/04/07 05:47:29;;;;;;;2.63;1.33;;;;;;;-145.18;100.00;46658.44;6183073;23;20005;-70
2023/04/07 05:49:54;;;;;;;3.10;1.90;;;;;;;-145.18;100.00;46656.50;6183123;23;20235;-70
2023/04/07 05:52:20;;;;;;;3.37;1.40;;;;;;;-145.18;100.00;46662.34;6183224;23;20052;-71
2023/04/07 05:54:45;;;;;;;5.60;2.37;;;;;;;-145.18;100.00;46658.44;6182935;23;20096;-70
2023/04/07 05:57:11;;;;;;;6.70;1.83;;;;;;;-145.18;100.00;46664.31;6157121;23;20005;-70
2023/04/07 05:59:36;;;;;;;5.87;2.77;;;;;;;-145.18;100.00;46662.34;6183038;23;20029;-70
2023/04/07 06:02:02;;;;;;;3.53;1.53;;;;;;;-145.18;100.00;46660.41;6183468;23;20037;-70
2023/04/07 06:04:28;;;;;;;2.77;1.70;;;;;;;-145.18;100.00;46666.25;6182991;23;20041;-70
2023/04/07 06:06:54;;;;;;;1.87;1.30;;;;;;;-145.18;100.00;46662.34;6182648;23;20231;-70
2023/04/07 06:09:23;;;;;;;4.67;1.70;;;;;;;-145.18;100.00;46662.34;6155616;23;20342;-70
2023/04/07 06:11:48;;;;;;;2.17;1.50;;;;;;;-145.18;100.00;46670.16;6183012;23;20043;-70
2023/04/07 06:14:14;;;;;;;4.43;1.90;;;;;;;-145.18;100.00;46664.31;6174605;23;20337;-70
2023/04/07 06:16:39;;;;;;;7.20;1.80;;;;;;;-145.18;100.00;46660.41;6178919;23;20009;-70
2023/04/07 06:19:06;;;;;;;2.00;1.20;;;;;;;-145.18;100.00;46664.31;6182647;23;20019;-70
2023/04/07 06:21:32;;;;;;;2.80;1.70;;;;;;;-145.18;100.00;46668.22;6182633;23;20016;-70
2023/04/07 06:23:58;;;;;;;3.17;1.80;;;;;;;-145.18;100.00;46662.34;6182632;23;20254;-70
2023/04/07 06:26:23;;;;;;;1.77;1.17;;;;;;;-145.18;100.00;46672.13;6183081;23;20235;-70
2023/04/07 06:28:48;;;;;;;6.53;2.30;;;;;;;-145.18;100.00;46668.22;6182126;23;20338;-70
2023/04/07 06:31:14;;;;;;;3.27;1.93;;;;;;;-145.18;100.00;46664.31;6182498;23;20032;-70
2023/04/07 06:33:39;;;;;;;3.83;1.53;;;;;;;-145.18;100.00;46668.22;6182355;23;20096;-70
2023/04/07 06:36:05;;;;;;;2.60;2.00;;;;;;;-145.18;100.00;46672.13;6183220;23;20449;-70
2023/04/07 06:38:31;;;;;;;2.23;1.90;;;;;;;-145.18;100.00;46674.06;6182476;23;20016;-70
2023/04/07 06:40:56;;;;;;;2.50;1.40;;;;;;;-145.18;100.00;46672.13;6176250;23;20085;-70
2023/04/07 06:43:22;;;;;;;4.93;1.97;;;;;;;-145.18;100.00;46674.06;6182083;23;20009;-70
2023/04/07 06:45:47;;;;;;;2.77;1.40;;;;;;;-145.18;100.00;46674.06;6182273;23;20012;-70
2023/04/07 06:48:12;;;;;;;2.97;1.33;;;;;;;-145.18;100.00;46676.03;6181821;23;20404;-70
2023/04/07 06:50:38;;;;;;;1.37;0.67;;;;;;;-145.18;100.00;46679.94;6181243;23;20005;-70
2023/04/07 06:53:03;;;;;;;2.20;1.10;;;;;;;-145.18;100.00;46679.94;6181904;23;20095;-70
2023/04/07 06:55:29;;;;;;;2.80;0.87;;;;;;;-145.18;100.00;46677.97;6182493;23;20013;-70
2023/04/07 06:57:54;;;;;;;3.60;1.33;;;;;;;-145.18;100.00;46681.88;6182041;23;20443;-70
2023/04/07 07:00:21;;;;;;;1.90;0.97;;;;;;;-145.18;100.00;46683.84;6182919;23;20423;-70
2023/04/07 07:02:47;;;;;;;1.90;0.97;;;;;;;-145.18;100.00;46679.94;6181028;23;20029;-70
2023/04/07 07:05:13;;;;;;;1.33;1.07;;;;;;;-145.18;100.00;46683.84;6180320;23;20605;-70
2023/04/07 07:07:38;;;;;;;2.93;1.07;;;;;;;-145.18;100.00;46681.88;6181584;23;20015;-70
2023/04/07 07:10:04;;;;;;;3.27;1.43;;;;;;;-145.18;100.00;46683.84;6182026;23;20492;-70
2023/04/07 07:12:29;;;;;;;3.20;1.27;;;;;;;-145.18;100.00;46679.94;6182025;23;20015;-70
2023/04/07 07:14:55;;;;;;;5.77;1.30;;;;;;;-145.18;100.00;46676.03;6181790;23;20255;-70
2023/04/07 07:17:20;;;;;;;4.33;1.50;;;;;;;-145.18;100.00;46679.94;6182316;23;20037;-70
2023/04/07 07:19:45;;;;;;;5.97;1.97;;;;;;;-145.18;100.00;46681.88;6182026;23;20005;-70
2023/04/07 07:22:11;;;;;;;2.10;1.00;;;;;;;-145.18;100.00;46674.06;6181930;23;20012;-70
2023/04/07 07:24:36;;;;;;;3.87;0.90;;;;;;;-145.18;100.00;46656.50;6181524;23;20009;-70
2023/04/07 07:27:02;;;;;;;1.20;0.70;;;;;;;-145.18;100.00;46635.00;6182374;23;20025;-70
2023/04/07 07:29:28;;;;;;;2.53;1.00;;;;;;;-145.18;100.00;46597.88;6181997;23;20016;-70
2023/04/07 07:31:53;;;;;;;3.73;0.90;;;;;;;-145.18;100.00;46590.06;6182033;23;20004;-70
2023/04/07 07:34:19;;;;;;;1.60;0.70;;;;;;;-145.18;100.00;46586.16;6154755;23;20020;-70
2023/04/07 07:36:44;;;;;;;3.63;1.00;;;;;;;-145.18;100.00;46566.63;6181743;23;20009;-70
2023/04/07 07:39:10;;;;;;;1.07;0.57;;;;;;;-145.18;100.00;46562.72;6181799;23;20009;-70
2023/04/07 07:41:35;;;;;;;1.60;1.00;;;;;;;-145.18;100.00;46560.78;6155805;23;20009;-69
2023/04/07 07:44:01;;;;;;;1.60;0.93;;;;;;;-145.18;100.00;46556.88;6181692;23;20072;-70
2023/04/07 07:46:26;;;;;;;4.50;2.03;;;;;;;-145.18;100.00;46558.81;6182019;23;20008;-69
2023/04/07 07:48:52;;;;;;;1.87;1.20;;;;;;;-145.18;100.00;46556.88;6181447;23;20069;-70
2023/04/07 07:51:17;;;;;;;11.90;1.70;;;;;;;-145.18;100.00;46556.88;6181026;23;20029;-70
2023/04/07 07:53:46;;;;;;;1.23;0.97;;;;;;;-145.18;100.00;46554.91;6177771;23;20041;-70
2023/04/07 07:56:11;;;;;;;0.57;0.50;;;;;;;-145.18;100.00;46562.72;6180034;23;20001;-69
2023/04/07 07:58:37;;;;;;;1.70;0.60;;;;;;;-145.18;100.00;46558.81;6180188;23;20234;-69
2023/04/07 08:01:02;;;;;;;1.27;0.43;;;;;;;-145.18;100.00;46562.72;6180283;23;20016;-69
2023/04/07 08:03:28;;;;;;;0.80;0.30;;;;;;;-145.18;100.00;46572.50;6180204;23;20028;-69
2023/04/07 08:05:53;;;;;;;3.60;0.90;;;;;;;-145.18;100.00;46564.69;6180523;23;20040;-69
2023/04/07 08:08:19;;;;;;;0.67;0.40;;;;;;;-145.18;100.00;46566.63;6180542;23;20016;-69
2023/04/07 08:10:44;;;;;;;0.60;0.47;;;;;;;-145.18;100.00;46566.63;6180148;23;20090;-69
2023/04/07 08:13:10;;;;;;;0.80;0.80;;;;;;;-145.18;100.00;46566.63;6180127;23;20055;-70
2023/04/07 08:15:35;;;;;;;6.00;0.70;;;;;;;-145.18;100.00;46562.72;6179121;23;20017;-70
2023/04/07 08:18:03;;;;;;;1.20;0.70;;;;;;;-145.18;100.00;46570.53;6179897;23;20012;-69
2023/04/07 08:20:29;;;;;;;1.23;0.90;;;;;;;-145.18;100.00;46562.72;6180353;23;20071;-69
2023/04/07 08:22:54;;;;;;;2.70;0.50;;;;;;;-145.18;100.00;46562.72;6177028;23;20239;-69
2023/04/07 08:25:20;;;;;;;2.13;0.60;;;;;;;-145.18;100.00;46560.78;6179711;23;20239;-70
2023/04/07 08:27:45;;;;;;;0.53;0.40;;;;;;;-145.18;100.00;46560.78;6179862;23;20017;-69
2023/04/07 08:30:11;;;;;;;1.73;0.17;;;;;;;-145.18;100.00;46560.78;6181428;23;20019;-69
2023/04/07 08:32:43;;;;;;;1.73;0.83;;;;;;;-145.18;100.00;46566.63;6180855;23;20157;-69
2023/04/07 08:35:09;;;;;;;0.40;0.40;;;;;;;-145.18;100.00;46568.59;6181051;23;20406;-69
2023/04/07 08:37:36;;;;;;;1.77;1.27;;;;;;;-145.18;100.00;46576.41;6181176;23;20254;-69
2023/04/07 08:40:02;;;;;;;3.23;0.83;;;;;;;-145.18;100.00;46586.16;6181515;23;20239;-69
2023/04/07 08:42:30;;;;;;;0.73;0.43;;;;;;;-145.18;100.00;46592.03;6182067;23;20253;-69
2023/04/07 08:45:06;;;;;;;1.40;0.50;;;;;;;-145.18;100.00;46601.78;6181114;23;20354;-69
2023/04/07 08:47:33;;;;;;;2.90;1.00;;;;;;;-145.18;100.00;46597.88;6155085;23;20242;-69
2023/04/07 08:50:09;;;;;;;1.27;1.03;;;;;;;-145.18;100.00;46590.06;6181850;23;20066;-69
2023/04/07 08:52:43;;;;;;;1.30;0.43;;;;;;;-145.18;100.00;46593.97;6154987;23;20231;-69
2023/04/07 08:55:10;;;;;;;1.60;0.60;;;;;;;-145.18;100.00;46607.66;6181168;23;20255;-69
2023/04/07 08:57:36;;;;;;;1.43;0.60;;;;;;;-145.18;100.00;46592.03;6181097;23;20251;-69
2023/04/07 09:00:05;;;;;;;1.37;0.83;;;;;;;-145.18;100.00;46592.03;6181018;23;20235;-69
2023/04/07 09:02:37;;;;;;;1.30;0.60;;;;;;;-145.18;100.00;46588.13;6181014;23;20243;-69
2023/04/07 09:05:05;;;;;;;0.63;0.60;;;;;;;-145.18;100.00;46588.13;6181185;23;20238;-69
2023/04/07 09:07:32;;;;;;;3.77;0.80;;;;;;;-145.18;100.00;46584.22;6181581;23;20245;-69
2023/04/07 09:09:58;;;;;;;1.53;0.80;;;;;;;-145.18;100.00;46586.16;6180653;23;20227;-69
2023/04/07 09:12:24;;;;;;;3.63;2.00;;;;;;;-145.18;100.00;46586.16;6181513;23;20366;-69
2023/04/07 09:14:49;;;;;;;0.63;0.50;;;;;;;-145.18;100.00;46574.44;6180564;23;20023;-69
2023/04/07 09:17:14;;;;;;;2.10;0.67;;;;;;;-145.18;100.00;46576.41;6181038;23;20004;-69
2023/04/07 09:19:40;;;;;;;0.97;0.70;;;;;;;-145.18;100.00;46584.22;6180457;23;20004;-69
2023/04/07 09:22:05;;;;;;;1.00;0.67;;;;;;;-145.18;100.00;46574.44;6180653;23;20085;-69
2023/04/07 09:24:31;;;;;;;0.73;0.47;;;;;;;-145.18;100.00;46580.31;6177672;23;20052;-69
2023/04/07 09:27:17;;;;;;;0.70;0.50;;;;;;;-145.18;100.00;46590.06;6153743;23;20340;-69
2023/04/07 09:29:46;;;;;;;3.00;1.20;;;;;;;-145.18;100.00;46588.13;6182081;23;20560;-69
2023/04/07 09:32:20;;;;;;;2.20;0.60;;;;;;;-145.18;100.00;46584.22;6183000;23;20235;-69
2023/04/07 09:34:46;;;;;;;1.73;0.77;;;;;;;-145.18;100.00;46582.25;6182553;23;20255;-69
2023/04/07 09:37:21;;;;;;;1.77;1.00;;;;;;;-145.18;100.00;46599.84;6183027;23;20242;-69
2023/04/07 09:39:51;;;;;;;1.38;0.80;;;;;;;-145.18;100.00;46601.78;6182582;23;20013;-69
2023/04/07 09:42:17;;;;;;;0.93;0.80;;;;;;;-145.18;100.00;46590.06;6182965;23;20430;-69
2023/04/07 09:44:43;;;;;;;3.27;1.00;;;;;;;-145.18;100.00;46609.59;6182268;23;20234;-69
2023/04/07 09:47:08;;;;;;;1.63;0.53;;;;;;;-145.18;100.00;46617.41;6183534;23;20344;-69
2023/04/07 09:49:49;;;;;;;4.10;0.70;;;;;;;-145.18;100.00;46601.78;6182390;23;20227;-70
2023/04/07 09:52:16;;;;;;;5.30;0.90;;;;;;;-145.18;100.00;46605.69;6183155;23;20008;-69
2023/04/07 09:54:41;;;;;;;1.00;0.80;;;;;;;-145.18;100.00;46623.28;6182454;23;20251;-69
2023/04/07 09:57:09;;;;;;;1.83;0.70;;;;;;;-145.18;100.00;46615.47;6183098;23;20313;-69
2023/04/07 09:59:41;;;;;;;2.00;0.60;;;;;;;-145.18;100.00;46627.19;6182428;23;20100;-69
2023/04/07 10:02:07;;;;;;;2.73;0.67;;;;;;;-145.18;100.00;46623.28;6183230;23;20231;-69
2023/04/07 10:04:33;;;;;;;1.17;0.60;;;;;;;-145.18;100.00;46629.13;6182507;23;20873;-69
2023/04/07 10:06:59;;;;;;;1.97;0.30;;;;;;;-145.18;100.00;46627.19;6183313;23;20234;-69
2023/04/07 10:09:29;;;;;;;0.53;0.50;;;;;;;-145.18;100.00;46629.13;6182314;23;20028;-69
2023/04/07 10:11:56;;;;;;;0.50;0.43;;;;;;;-145.18;100.00;46623.28;6182353;23;20234;-69
2023/04/07 10:14:30;;;;;;;1.43;0.83;;;;;;;-145.18;100.00;46636.94;6156640;23;20258;-69
2023/04/07 10:16:56;;;;;;;6.53;0.93;;;;;;;-145.18;100.00;46631.09;6182738;23;20246;-69
2023/04/07 10:19:23;;;;;;;1.77;0.50;;;;;;;-145.18;100.00;46627.19;6182771;23;20231;-69
2023/04/07 10:21:53;;;;;;;0.50;0.40;;;;;;;-145.18;100.00;46619.38;6182150;23;20265;-69
2023/04/07 10:24:32;;;;;;;3.00;1.27;;;;;;;-145.18;100.00;46613.50;6182815;23;20231;-69
2023/04/07 10:27:02;;;;;;;0.90;0.73;;;;;;;-145.18;100.00;46603.75;6180751;23;20231;-69
2023/04/07 10:29:33;;;;;;;0.60;0.57;;;;;;;-145.18;100.00;46593.97;6181452;23;20243;-69
2023/04/07 10:32:01;;;;;;;27.07;1.60;;;;;;;-145.18;100.00;46599.84;6181832;23;20234;-69
2023/04/07 10:34:54;;;;;;;2.87;1.03;;;;;;;-145.18;100.00;46578.34;6182239;23;20267;-69
2023/04/07 10:37:21;;;;;;;0.37;0.30;;;;;;;-145.18;100.00;46582.25;6182295;23;20222;-69
2023/04/07 10:40:11;;;;;;;4.57;0.60;;;;;;;-145.18;100.00;46590.06;6181558;23;20554;-69
2023/04/07 10:42:36;;;;;;;1.43;1.10;;;;;;;-145.18;100.00;46592.03;6181506;23;20684;-69
2023/04/07 10:45:03;;;;;;;0.83;0.47;;;;;;;-145.18;100.00;46588.13;6182084;23;20282;-69
2023/04/07 10:47:29;;;;;;;1.00;0.50;;;;;;;-145.18;100.00;46590.06;6181959;23;20013;-69
2023/04/07 10:50:16;;;;;;;2.20;1.13;;;;;;;-145.18;100.00;46597.88;6153108;23;20281;-69
2023/04/07 10:52:42;;;;;;;1.60;0.67;;;;;;;-145.18;100.00;46597.88;6182206;23;20032;-69
2023/04/07 10:55:26;;;;;;;1.87;0.80;;;;;;;-145.18;100.00;46601.78;6181986;23;20254;-69
2023/04/07 10:58:15;;;;;;;2.63;0.87;;;;;;;-145.18;100.00;46599.84;6181923;23;20015;-69
2023/04/07 11:00:40;;;;;;;3.13;1.23;;;;;;;-145.18;100.00;46597.88;6182092;23;20227;-69
2023/04/07 11:03:14;;;;;;;1.93;1.50;;;;;;;-145.18;100.00;46613.50;6181162;23;20258;-69
2023/04/07 11:05:40;;;;;;;5.13;1.37;;;;;;;-145.18;100.00;46609.59;6181759;23;20032;-69
2023/04/07 11:08:06;;;;;;;3.67;1.10;;;;;;;-145.18;100.00;46603.75;6181015;23;20288;-69
2023/04/07 11:10:35;;;;;;;2.40;0.77;;;;;;;-145.18;100.00;46599.84;6181741;23;20593;-69